Time;durP1;ratioP1;P1;durP2;ratioP2;P2;SDS_P1;SDS_P2;PMS_P1;PMS_P2;Temp;Humidity;BMP_temperature;BMP_pressure;BME280_temperature;BME280_humidity;BME280_pressure;Samples;Min_cycle;Max_cycle;Signal;HPM_P1;HPM_P2
2023/12/11 00:00:44;;;;;;;24.17;9.00;;;;;;;-146.25;100.00;52668.28;2080107;28;23738;-76
2023/12/11 00:01:47;;;;;;;20.67;7.75;;;;;;;-146.25;100.00;52680.47;2080598;28;20057;-76
2023/12/11 00:02:49;;;;;;;19.85;8.02;;;;;;;-146.25;100.00;52658.16;2079950;28;28194;-75
2023/12/11 00:03:51;;;;;;;21.25;8.25;;;;;;;-146.25;100.00;52650.03;2080227;28;20038;-75
2023/12/11 00:04:56;;;;;;;19.55;8.07;;;;;;;-146.25;100.00;52676.41;2080338;28;20842;-76
2023/12/11 00:05:59;;;;;;;21.60;7.90;;;;;;;-146.25;100.00;52654.09;2080382;28;23282;-76
2023/12/11 00:07:01;;;;;;;23.58;8.95;;;;;;;-146.25;100.00;52668.28;2080694;28;20899;-75
2023/12/11 00:08:03;;;;;;;20.75;7.63;;;;;;;-146.25;100.00;52672.34;2079415;28;23337;-76
2023/12/11 00:09:05;;;;;;;23.52;7.70;;;;;;;-146.25;100.00;52676.41;2080240;28;20038;-75
2023/12/11 00:10:08;;;;;;;27.25;7.82;;;;;;;-146.25;100.00;52639.91;2079224;28;24538;-76
2023/12/11 00:11:12;;;;;;;24.92;7.90;;;;;;;-146.25;100.00;52676.41;2079775;28;20183;-77
2023/12/11 00:12:14;;;;;;;20.98;7.97;;;;;;;-146.25;100.00;52674.38;2080212;28;25464;-79
2023/12/11 00:13:19;;;;;;;26.17;8.23;;;;;;;-146.25;100.00;52668.28;2080316;28;20180;-75
2023/12/11 00:14:21;;;;;;;24.65;7.82;;;;;;;-146.25;100.00;52672.34;2079832;28;24569;-76
2023/12/11 00:15:25;;;;;;;24.73;7.15;;;;;;;-146.25;100.00;52650.03;2070710;28;20608;-76
2023/12/11 00:16:27;;;;;;;24.65;7.80;;;;;;;-146.25;100.00;52637.88;2072116;28;20877;-77
2023/12/11 00:17:29;;;;;;;23.98;6.65;;;;;;;-146.25;100.00;52648.00;2080462;28;23540;-75
2023/12/11 00:18:31;;;;;;;23.60;7.10;;;;;;;-146.25;100.00;52672.34;2079456;28;23121;-76
2023/12/11 00:19:33;;;;;;;26.70;6.65;;;;;;;-146.25;100.00;52670.31;2080647;28;20041;-76
2023/12/11 00:20:36;;;;;;;23.52;6.57;;;;;;;-146.25;100.00;52609.50;2080351;28;21338;-78
2023/12/11 00:21:38;;;;;;;28.17;6.85;;;;;;;-146.25;100.00;52698.72;2079514;28;20165;-77
2023/12/11 00:22:42;;;;;;;20.20;6.63;;;;;;;-146.25;100.00;52682.47;2080829;28;20045;-79
2023/12/11 00:23:44;;;;;;;16.50;5.90;;;;;;;-146.25;100.00;52672.34;2079617;28;24207;-77
2023/12/11 00:24:46;;;;;;;22.75;7.05;;;;;;;-146.25;100.00;52716.97;2080589;28;20785;-74
2023/12/11 00:25:48;;;;;;;21.20;6.00;;;;;;;-146.25;100.00;52690.59;2080298;28;20611;-76
2023/12/11 00:26:53;;;;;;;21.08;5.97;;;;;;;-146.25;100.00;52692.63;2080250;28;20038;-77
2023/12/11 00:27:55;;;;;;;20.88;5.95;;;;;;;-146.25;100.00;52676.41;2080519;28;20092;-77
2023/12/11 00:28:56;;;;;;;25.80;6.78;;;;;;;-146.25;100.00;52668.28;2079411;28;23689;-78
2023/12/11 00:30:00;;;;;;;28.17;6.50;;;;;;;-146.25;100.00;52684.50;2080410;28;21836;-76
2023/12/11 00:31:06;;;;;;;35.17;6.60;;;;;;;-146.25;100.00;52672.34;2079475;28;21829;-77
2023/12/11 00:32:09;;;;;;;31.95;6.38;;;;;;;-146.25;100.00;52664.22;2079739;28;25280;-76
2023/12/11 00:33:11;;;;;;;26.33;6.40;;;;;;;-146.25;100.00;52692.63;2080008;28;20167;-75
2023/12/11 00:34:16;;;;;;;25.77;6.30;;;;;;;-146.25;100.00;52670.31;2079387;28;23429;-77
2023/12/11 00:35:17;;;;;;;31.08;6.00;;;;;;;-146.25;100.00;52672.34;2079925;28;22646;-77
2023/12/11 00:36:19;;;;;;;28.90;6.38;;;;;;;-146.25;100.00;52700.72;2080510;28;20153;-77
2023/12/11 00:37:21;;;;;;;34.63;5.70;;;;;;;-146.25;100.00;52650.03;2080187;28;25577;-76
2023/12/11 00:38:23;;;;;;;30.45;5.55;;;;;;;-146.25;100.00;52676.41;2079670;28;20458;-77
2023/12/11 00:39:25;;;;;;;33.60;5.60;;;;;;;-146.25;100.00;52678.44;2079311;28;21021;-77
2023/12/11 00:40:26;;;;;;;29.17;5.03;;;;;;;-146.25;100.00;52700.72;2080426;28;20085;-79
2023/12/11 00:41:29;;;;;;;25.00;4.82;;;;;;;-146.25;100.00;52698.72;2080171;28;20046;-77
2023/12/11 00:42:31;;;;;;;26.73;4.53;;;;;;;-146.25;100.00;52652.06;2080466;28;20777;-79
2023/12/11 00:43:33;;;;;;;34.10;4.90;;;;;;;-146.25;100.00;52668.28;2080481;28;20843;-77
2023/12/11 00:44:44;;;;;;;26.27;4.03;;;;;;;-146.25;100.00;52698.72;2079437;28;25699;-75
2023/12/11 00:45:46;;;;;;;31.55;4.68;;;;;;;-146.25;100.00;52676.41;2088420;28;20045;-77
2023/12/11 00:46:48;;;;;;;29.08;4.45;;;;;;;-146.25;100.00;52708.84;2088098;28;24405;-77
2023/12/11 00:47:52;;;;;;;42.45;4.80;;;;;;;-146.25;100.00;52648.00;2087920;28;20871;-78
2023/12/11 00:48:53;;;;;;;38.15;4.90;;;;;;;-146.25;100.00;52682.47;2087554;28;23503;-78
2023/12/11 00:49:56;;;;;;;24.70;3.92;;;;;;;-146.25;100.00;52672.34;2081397;28;24830;-78
2023/12/11 00:51:03;;;;;;;32.35;3.72;;;;;;;-146.25;100.00;52670.31;2080219;28;20042;-78
2023/12/11 00:52:06;;;;;;;34.92;4.35;;;;;;;-146.25;100.00;52684.50;2080071;28;21609;-75
2023/12/11 00:53:08;;;;;;;38.80;4.43;;;;;;;-146.25;100.00;52706.81;2080269;28;20038;-78
2023/12/11 00:54:12;;;;;;;33.88;4.70;;;;;;;-146.25;100.00;52639.91;2079691;28;25071;-78
2023/12/11 00:55:14;;;;;;;27.70;3.92;;;;;;;-146.25;100.00;52676.41;2079381;28;22253;-76
2023/12/11 00:56:16;;;;;;;30.10;3.38;;;;;;;-146.25;100.00;52696.69;2080102;28;24854;-76
2023/12/11 00:57:22;;;;;;;26.00;3.88;;;;;;;-146.25;100.00;52680.47;2080485;28;20042;-76
2023/12/11 00:58:24;;;;;;;29.95;3.75;;;;;;;-146.25;100.00;52702.75;2080194;28;20054;-76
2023/12/11 00:59:26;;;;;;;32.63;3.60;;;;;;;-146.25;100.00;52656.13;2079881;28;20045;-76
2023/12/11 01:00:28;;;;;;;37.17;3.65;;;;;;;-146.25;100.00;52658.16;2079853;28;21769;-76
2023/12/11 01:01:30;;;;;;;37.05;4.03;;;;;;;-146.25;100.00;52654.09;2079350;28;23815;-76
2023/12/11 01:02:32;;;;;;;37.17;4.03;;;;;;;-146.25;100.00;52668.28;2079387;28;23070;-77
2023/12/11 01:03:37;;;;;;;34.72;3.65;;;;;;;-146.25;100.00;52696.69;2079687;28;20104;-77
2023/12/11 01:04:40;;;;;;;33.88;3.75;;;;;;;-146.25;100.00;52660.19;2079665;28;26230;-77
2023/12/11 01:05:42;;;;;;;34.95;3.67;;;;;;;-146.25;100.00;52635.84;2079427;28;20081;-76
2023/12/11 01:06:44;;;;;;;30.95;4.05;;;;;;;-146.25;100.00;52682.47;2072028;28;26434;-76
2023/12/11 01:07:45;;;;;;;36.47;3.40;;;;;;;-146.25;100.00;52692.63;2080161;28;24209;-76
2023/12/11 01:08:47;;;;;;;47.42;4.05;;;;;;;-146.25;100.00;52668.28;2080235;28;20886;-77
2023/12/11 01:09:51;;;;;;;47.97;3.88;;;;;;;-146.25;100.00;52658.16;2079776;28;23526;-77
2023/12/11 01:10:54;;;;;;;53.75;3.70;;;;;;;-146.25;100.00;52668.28;2079942;28;22130;-77
2023/12/11 01:11:56;;;;;;;37.20;3.70;;;;;;;-146.25;100.00;52639.91;2079350;28;22799;-76
2023/12/11 01:12:58;;;;;;;35.13;3.38;;;;;;;-146.25;100.00;52635.84;2079256;28;25362;-76
2023/12/11 01:14:00;;;;;;;37.63;3.42;;;;;;;-146.25;100.00;52656.13;2080224;28;20034;-77
2023/12/11 01:15:02;;;;;;;40.10;4.50;;;;;;;-146.25;100.00;52692.63;2079568;28;24633;-78
2023/12/11 01:16:04;;;;;;;34.78;3.63;;;;;;;-146.25;100.00;52692.63;2079869;28;23253;-76
2023/12/11 01:17:06;;;;;;;37.75;3.15;;;;;;;-146.25;100.00;52652.06;2079324;28;20911;-77
2023/12/11 01:18:28;;;;;;;33.50;3.30;;;;;;;-146.25;100.00;52631.78;2079065;28;20081;-78
2023/12/11 01:19:30;;;;;;;40.53;3.72;;;;;;;-146.25;100.00;52680.47;2079857;28;25449;-77
2023/12/11 01:20:32;;;;;;;41.45;4.00;;;;;;;-146.25;100.00;52672.34;2079416;28;22263;-77
2023/12/11 01:21:34;;;;;;;41.10;3.38;;;;;;;-146.25;100.00;52654.09;2079918;28;20112;-77
2023/12/11 01:22:36;;;;;;;37.90;3.50;;;;;;;-146.25;100.00;52658.16;2079824;28;21291;-78
2023/12/11 01:23:39;;;;;;;36.45;3.63;;;;;;;-146.25;100.00;52611.50;2079450;28;21850;-78
2023/12/11 01:24:40;;;;;;;36.30;3.33;;;;;;;-146.25;100.00;52643.97;2078992;28;26857;-77
2023/12/11 01:25:43;;;;;;;44.67;4.10;;;;;;;-146.25;100.00;52678.44;2079518;28;20763;-77
2023/12/11 01:26:45;;;;;;;33.13;3.83;;;;;;;-146.25;100.00;52702.75;2079966;28;21200;-77
2023/12/11 01:27:47;;;;;;;43.53;4.28;;;;;;;-146.25;100.00;52676.41;2079690;28;20168;-77
2023/12/11 01:28:49;;;;;;;46.72;4.57;;;;;;;-146.25;100.00;52627.75;2080012;28;22831;-76
2023/12/11 01:29:51;;;;;;;43.97;4.53;;;;;;;-146.25;100.00;52678.44;2079803;28;20033;-70
2023/12/11 01:30:53;;;;;;;43.75;3.83;;;;;;;-146.25;100.00;52690.59;2079612;28;21592;-77
2023/12/11 01:31:55;;;;;;;46.58;5.03;;;;;;;-146.25;100.00;52668.28;2079417;28;24022;-77
2023/12/11 01:32:57;;;;;;;46.42;4.47;;;;;;;-146.25;100.00;52670.31;2080536;28;20868;-77
2023/12/11 01:33:59;;;;;;;53.42;5.13;;;;;;;-146.25;100.00;52660.19;2080896;28;25885;-77
2023/12/11 01:35:01;;;;;;;50.85;5.32;;;;;;;-146.25;100.00;52656.13;2080812;28;21464;-77
2023/12/11 01:36:04;;;;;;;50.47;4.90;;;;;;;-146.25;100.00;52680.47;2081259;28;20112;-77
2023/12/11 01:37:08;;;;;;;43.67;4.40;;;;;;;-146.25;100.00;52712.91;2081285;28;23471;-78
2023/12/11 01:38:10;;;;;;;56.67;5.07;;;;;;;-146.25;100.00;52688.56;2081114;28;23700;-77
2023/12/11 01:39:12;;;;;;;57.83;6.13;;;;;;;-146.25;100.00;52684.50;2081149;28;24529;-77
2023/12/11 01:40:16;;;;;;;58.88;6.45;;;;;;;-146.25;100.00;52637.88;2080404;28;24764;-78
2023/12/11 01:41:18;;;;;;;56.22;5.85;;;;;;;-146.25;100.00;52682.47;2080514;28;24859;-78
2023/12/11 01:42:20;;;;;;;54.30;5.93;;;;;;;-146.25;100.00;52660.19;2081245;28;23417;-77
2023/12/11 01:43:22;;;;;;;55.42;5.50;;;;;;;-146.25;100.00;52684.50;2081304;28;23158;-77
2023/12/11 01:44:26;;;;;;;58.35;5.50;;;;;;;-146.25;100.00;52648.00;2080936;28;23607;-77
2023/12/11 01:45:28;;;;;;;54.63;5.70;;;;;;;-146.25;100.00;52658.16;2080352;28;25429;-77
2023/12/11 01:46:31;;;;;;;48.53;5.78;;;;;;;-146.25;100.00;52682.47;2081111;28;22655;-76
2023/12/11 01:47:32;;;;;;;50.83;5.95;;;;;;;-146.25;100.00;52650.03;2080813;28;22727;-76
2023/12/11 01:48:40;;;;;;;59.45;6.03;;;;;;;-146.25;100.00;52654.09;2081795;28;20905;-76
2023/12/11 01:49:44;;;;;;;50.55;5.07;;;;;;;-146.25;100.00;52684.50;2080549;28;20069;-78
2023/12/11 01:50:48;;;;;;;52.03;5.68;;;;;;;-146.25;100.00;52631.78;2080034;28;24130;-78
2023/12/11 01:51:50;;;;;;;63.65;6.57;;;;;;;-146.25;100.00;52686.53;2081485;28;20042;-78
2023/12/11 01:52:57;;;;;;;61.80;6.20;;;;;;;-146.25;100.00;52704.78;2081338;28;20041;-76
2023/12/11 01:54:02;;;;;;;63.05;6.30;;;;;;;-146.25;100.00;52694.66;2080981;28;23533;-76
2023/12/11 01:55:05;;;;;;;57.22;5.40;;;;;;;-146.25;100.00;52686.53;2080653;28;20920;-75
2023/12/11 01:56:08;;;;;;;62.78;6.13;;;;;;;-146.25;100.00;52656.13;2079971;28;20246;-76
2023/12/11 01:57:10;;;;;;;61.63;6.15;;;;;;;-146.25;100.00;52686.53;2080929;28;20735;-77
2023/12/11 01:58:12;;;;;;;61.30;5.80;;;;;;;-146.25;100.00;52637.88;2080312;28;25222;-76
2023/12/11 01:59:14;;;;;;;62.85;6.15;;;;;;;-146.25;100.00;52660.19;2072467;28;25110;-76
2023/12/11 02:00:16;;;;;;;45.58;5.57;;;;;;;-146.25;100.00;52664.22;2072538;28;25162;-76
2023/12/11 02:01:23;;;;;;;51.13;5.53;;;;;;;-146.25;100.00;52680.47;2079446;28;22756;-77
2023/12/11 02:02:25;;;;;;;51.60;5.80;;;;;;;-146.25;100.00;52652.06;2072766;28;21012;-76
2023/12/11 02:03:28;;;;;;;55.20;6.45;;;;;;;-146.25;100.00;52656.13;2073038;28;23577;-77
2023/12/11 02:04:31;;;;;;;55.13;6.53;;;;;;;-146.25;100.00;52721.00;2080562;28;20038;-76
2023/12/11 02:05:33;;;;;;;62.88;5.75;;;;;;;-146.25;100.00;52672.34;2080459;28;27037;-76
2023/12/11 02:06:35;;;;;;;59.95;6.15;;;;;;;-146.25;100.00;52666.25;2080602;28;21819;-76
2023/12/11 02:07:38;;;;;;;50.13;5.97;;;;;;;-146.25;100.00;52650.03;2081199;28;23220;-78
2023/12/11 02:08:40;;;;;;;58.15;6.20;;;;;;;-146.25;100.00;52648.00;2080725;28;26485;-78
2023/12/11 02:09:42;;;;;;;61.45;6.22;;;;;;;-146.25;100.00;52660.19;2080337;28;20766;-77
2023/12/11 02:10:44;;;;;;;60.92;6.22;;;;;;;-146.25;100.00;52648.00;2080789;28;20057;-79
2023/12/11 02:11:46;;;;;;;61.08;7.10;;;;;;;-146.25;100.00;52696.69;2079790;28;24872;-78
2023/12/11 02:12:48;;;;;;;52.08;5.65;;;;;;;-146.25;100.00;52672.34;2072310;28;22484;-79
2023/12/11 02:13:50;;;;;;;55.47;5.93;;;;;;;-146.25;100.00;52656.13;2072486;28;22660;-76
2023/12/11 02:14:52;;;;;;;55.45;5.95;;;;;;;-146.25;100.00;52684.50;2081241;28;20903;-78
2023/12/11 02:15:54;;;;;;;49.55;5.38;;;;;;;-146.25;100.00;52652.06;2080898;28;22489;-76
2023/12/11 02:16:56;;;;;;;52.15;5.43;;;;;;;-146.25;100.00;52643.97;2080468;28;20987;-76
2023/12/11 02:17:58;;;;;;;55.67;6.70;;;;;;;-146.25;100.00;52668.28;2081023;28;22018;-76
2023/12/11 02:19:00;;;;;;;52.80;6.25;;;;;;;-146.25;100.00;52641.94;2080916;28;20819;-76
2023/12/11 02:20:05;;;;;;;59.85;6.43;;;;;;;-146.25;100.00;52672.34;2080407;28;25958;-76
2023/12/11 02:21:07;;;;;;;46.65;6.00;;;;;;;-146.25;100.00;52688.56;2081095;28;23259;-76
2023/12/11 02:22:09;;;;;;;54.10;5.50;;;;;;;-146.25;100.00;52668.28;2081056;28;20113;-75
2023/12/11 02:23:39;;;;;;;57.28;6.03;;;;;;;-146.25;100.00;52645.97;2072886;28;20124;-76
2023/12/11 02:24:51;;;;;;;55.20;5.72;;;;;;;-146.25;100.00;52652.06;2072911;28;20047;-76
2023/12/11 02:26:17;;;;;;;49.45;5.68;;;;;;;-146.25;100.00;52660.19;2072700;28;20043;-76
2023/12/11 02:27:25;;;;;;;60.47;5.15;;;;;;;-146.25;100.00;52654.09;2073105;28;20765;-77
2023/12/11 02:28:27;;;;;;;48.63;5.07;;;;;;;-146.25;100.00;52639.91;2072897;28;25002;-76
2023/12/11 02:29:30;;;;;;;55.45;5.18;;;;;;;-146.25;100.00;52654.09;2074761;28;21067;-76
2023/12/11 02:30:37;;;;;;;56.83;4.97;;;;;;;-146.25;100.00;52643.97;2080792;28;23152;-76
2023/12/11 02:31:39;;;;;;;53.15;5.70;;;;;;;-146.25;100.00;52672.34;2080375;28;23810;-76
2023/12/11 02:32:41;;;;;;;59.08;5.47;;;;;;;-146.25;100.00;52692.63;2081068;28;21744;-78
2023/12/11 02:33:43;;;;;;;61.50;5.55;;;;;;;-146.25;100.00;52727.09;2080405;28;21576;-76
2023/12/11 02:34:47;;;;;;;47.13;4.40;;;;;;;-146.25;100.00;52698.72;2081030;28;23734;-76
2023/12/11 02:35:51;;;;;;;42.13;4.57;;;;;;;-146.25;100.00;52629.75;2080131;28;22934;-75
2023/12/11 02:36:53;;;;;;;51.97;4.60;;;;;;;-146.25;100.00;52645.97;2079666;28;21442;-75
2023/12/11 02:37:55;;;;;;;49.63;4.95;;;;;;;-146.25;100.00;52718.97;2080510;28;24476;-76
2023/12/11 02:38:59;;;;;;;55.08;4.93;;;;;;;-146.25;100.00;52692.63;2080776;28;20688;-75
2023/12/11 02:40:02;;;;;;;50.63;4.55;;;;;;;-146.25;100.00;52656.13;2080698;28;21047;-76
2023/12/11 02:41:05;;;;;;;53.13;5.35;;;;;;;-146.25;100.00;52676.41;2080355;28;21228;-77
2023/12/11 02:42:07;;;;;;;46.63;4.63;;;;;;;-146.25;100.00;52660.19;2080418;28;24714;-76
2023/12/11 02:43:08;;;;;;;57.40;5.65;;;;;;;-146.25;100.00;52662.22;2080734;28;20155;-78
2023/12/11 02:44:10;;;;;;;56.47;5.22;;;;;;;-146.25;100.00;52672.34;2080712;28;25348;-77
2023/12/11 02:45:14;;;;;;;46.92;5.47;;;;;;;-146.25;100.00;52648.00;2079717;28;20124;-76
2023/12/11 02:46:16;;;;;;;58.80;5.28;;;;;;;-146.25;100.00;52684.50;2080409;28;21303;-76
2023/12/11 02:47:18;;;;;;;53.90;4.97;;;;;;;-146.25;100.00;52672.34;2080176;28;22046;-76
2023/12/11 02:48:19;;;;;;;50.92;4.95;;;;;;;-146.25;100.00;52688.56;2080751;28;23430;-76
2023/12/11 02:49:21;;;;;;;59.65;5.35;;;;;;;-146.25;100.00;52712.91;2081145;28;20149;-77
2023/12/11 02:50:23;;;;;;;51.33;5.25;;;;;;;-146.25;100.00;52676.41;2080733;28;20041;-76
2023/12/11 02:51:25;;;;;;;44.67;5.00;;;;;;;-146.25;100.00;52704.78;2080392;28;22444;-77
2023/12/11 02:52:32;;;;;;;46.10;4.78;;;;;;;-146.25;100.00;52633.81;2081094;28;20124;-74
2023/12/11 02:53:34;;;;;;;44.85;4.40;;;;;;;-146.25;100.00;52670.31;2080899;28;20042;-78
2023/12/11 02:54:36;;;;;;;43.75;4.97;;;;;;;-146.25;100.00;52666.25;2080945;28;20038;-76
2023/12/11 02:55:40;;;;;;;43.75;4.75;;;;;;;-146.25;100.00;52684.50;2080626;28;24601;-76
2023/12/11 02:56:42;;;;;;;44.72;5.22;;;;;;;-146.25;100.00;52648.00;2080014;28;20064;-77
2023/12/11 02:57:43;;;;;;;54.60;5.28;;;;;;;-146.25;100.00;52637.88;2080828;28;20092;-76
2023/12/11 02:58:45;;;;;;;47.72;4.88;;;;;;;-146.25;100.00;52658.16;2080879;28;20124;-77
2023/12/11 02:59:49;;;;;;;47.17;4.82;;;;;;;-146.25;100.00;52662.22;2081232;28;22805;-77
2023/12/11 03:00:51;;;;;;;34.28;4.45;;;;;;;-146.25;100.00;52700.72;2084833;28;21168;-77
2023/12/11 03:01:55;;;;;;;47.35;5.93;;;;;;;-146.25;100.00;52690.59;2076193;28;21947;-77
2023/12/11 03:02:58;;;;;;;51.60;4.78;;;;;;;-146.25;100.00;52625.72;2072396;28;23694;-77
2023/12/11 03:03:59;;;;;;;45.63;5.30;;;;;;;-146.25;100.00;52692.63;2080624;28;20115;-77
2023/12/11 03:05:01;;;;;;;43.60;4.75;;;;;;;-146.25;100.00;52637.88;2080684;28;21886;-77
2023/12/11 03:06:04;;;;;;;53.83;5.75;;;;;;;-146.25;100.00;52627.75;2080015;28;22321;-77
2023/12/11 03:07:06;;;;;;;48.00;5.82;;;;;;;-146.25;100.00;52617.59;2079764;28;20088;-77
2023/12/11 03:08:08;;;;;;;53.20;4.28;;;;;;;-146.25;100.00;52686.53;2080752;28;23407;-77
2023/12/11 03:09:10;;;;;;;37.33;4.70;;;;;;;-146.25;100.00;52664.22;2080690;28;24871;-76
2023/12/11 03:10:12;;;;;;;50.20;4.80;;;;;;;-146.25;100.00;52700.72;2081078;28;20363;-76
2023/12/11 03:11:14;;;;;;;42.95;5.13;;;;;;;-146.25;100.00;52662.22;2079386;28;26468;-76
2023/12/11 03:12:17;;;;;;;48.08;4.35;;;;;;;-146.25;100.00;52676.41;2079606;28;23097;-77
2023/12/11 03:13:20;;;;;;;39.90;4.65;;;;;;;-146.25;100.00;52641.94;2080776;28;20831;-77
2023/12/11 03:14:27;;;;;;;42.28;5.50;;;;;;;-146.25;100.00;52686.53;2081051;28;20046;-78
2023/12/11 03:15:30;;;;;;;48.92;4.45;;;;;;;-146.25;100.00;52674.38;2080392;28;20176;-76
2023/12/11 03:16:32;;;;;;;50.72;4.88;;;;;;;-146.25;100.00;52664.22;2080439;28;20066;-77
2023/12/11 03:17:34;;;;;;;51.75;5.07;;;;;;;-146.25;100.00;52684.50;2080159;28;23468;-77
2023/12/11 03:18:36;;;;;;;45.42;5.18;;;;;;;-146.25;100.00;52648.00;2081051;28;20038;-77
2023/12/11 03:19:40;;;;;;;51.33;4.70;;;;;;;-146.25;100.00;52686.53;2080125;28;24365;-75
2023/12/11 03:20:42;;;;;;;39.72;4.72;;;;;;;-146.25;100.00;52662.22;2080893;28;20042;-77
2023/12/11 03:21:44;;;;;;;42.25;4.78;;;;;;;-146.25;100.00;52712.91;2079672;28;20038;-76
2023/12/11 03:22:46;;;;;;;49.28;4.63;;;;;;;-146.25;100.00;52704.78;2081117;28;24154;-77
2023/12/11 03:23:48;;;;;;;51.90;5.45;;;;;;;-146.25;100.00;52694.66;2079775;28;22231;-77
2023/12/11 03:24:51;;;;;;;48.15;5.10;;;;;;;-146.25;100.00;52652.06;2080031;28;23539;-77
2023/12/11 03:25:55;;;;;;;39.53;4.60;;;;;;;-146.25;100.00;52652.06;2079626;28;20034;-76
2023/12/11 03:26:56;;;;;;;43.75;5.32;;;;;;;-146.25;100.00;52615.56;2079537;28;20045;-77
2023/12/11 03:27:58;;;;;;;55.25;5.20;;;;;;;-146.25;100.00;52676.41;2080373;28;26138;-77
2023/12/11 03:29:00;;;;;;;47.35;5.15;;;;;;;-146.25;100.00;52645.97;2080649;28;21067;-77
2023/12/11 03:30:03;;;;;;;44.90;4.70;;;;;;;-146.25;100.00;52708.84;2080663;28;20073;-77
2023/12/11 03:31:05;;;;;;;49.65;5.80;;;;;;;-146.25;100.00;52660.19;2080721;28;24415;-77
2023/12/11 03:32:08;;;;;;;40.28;4.10;;;;;;;-146.25;100.00;52641.94;2080096;28;23225;-77
2023/12/11 03:33:10;;;;;;;42.92;4.72;;;;;;;-146.25;100.00;52721.00;2080180;28;20045;-77
2023/12/11 03:34:12;;;;;;;37.03;5.35;;;;;;;-146.25;100.00;52648.00;2080668;28;20071;-77
2023/12/11 03:35:17;;;;;;;48.67;5.55;;;;;;;-146.25;100.00;52676.41;2079365;28;25000;-77
2023/12/11 03:36:19;;;;;;;49.97;5.60;;;;;;;-146.25;100.00;52676.41;2080531;28;20257;-77
2023/12/11 03:37:21;;;;;;;55.05;5.90;;;;;;;-146.25;100.00;52680.47;2080477;28;24680;-77
2023/12/11 03:38:24;;;;;;;47.50;5.55;;;;;;;-146.25;100.00;52643.97;2080111;28;20049;-76
2023/12/11 03:39:28;;;;;;;51.55;4.80;;;;;;;-146.25;100.00;52700.72;2072452;28;20046;-77
2023/12/11 03:40:30;;;;;;;49.60;5.68;;;;;;;-146.25;100.00;52637.88;2071870;28;23021;-76
2023/12/11 03:41:32;;;;;;;53.42;5.82;;;;;;;-146.25;100.00;52654.09;2071996;28;21400;-78
2023/12/11 03:42:34;;;;;;;53.25;5.13;;;;;;;-146.25;100.00;52684.50;2071383;28;22039;-77
2023/12/11 03:43:36;;;;;;;43.97;4.85;;;;;;;-146.25;100.00;52668.28;2071912;28;24851;-77
2023/12/11 03:44:38;;;;;;;44.22;5.72;;;;;;;-146.25;100.00;52633.81;2075135;28;23541;-77
2023/12/11 03:45:40;;;;;;;50.47;5.90;;;;;;;-146.25;100.00;52654.09;2080482;28;20053;-77
2023/12/11 03:46:42;;;;;;;49.53;5.50;;;;;;;-146.25;100.00;52700.72;2080513;28;20033;-78
2023/12/11 03:47:46;;;;;;;44.92;4.82;;;;;;;-146.25;100.00;52639.91;2080072;28;22389;-77
2023/12/11 03:48:48;;;;;;;60.47;7.28;;;;;;;-146.25;100.00;52700.72;2080318;28;21624;-76
2023/12/11 03:49:51;;;;;;;44.13;5.57;;;;;;;-146.25;100.00;52684.50;2080741;28;20551;-76
2023/12/11 03:50:53;;;;;;;50.63;5.65;;;;;;;-146.25;100.00;52652.06;2079530;28;20724;-76
2023/12/11 03:51:55;;;;;;;50.80;5.45;;;;;;;-146.25;100.00;52643.97;2080771;28;25024;-77
2023/12/11 03:52:57;;;;;;;54.70;5.68;;;;;;;-146.25;100.00;52639.91;2080485;28;20145;-77
2023/12/11 03:54:00;;;;;;;43.20;5.10;;;;;;;-146.25;100.00;52700.72;2080782;28;20922;-79
2023/12/11 03:55:03;;;;;;;45.42;5.03;;;;;;;-146.25;100.00;52710.88;2079900;28;25088;-78
2023/12/11 03:56:06;;;;;;;47.50;5.80;;;;;;;-146.25;100.00;52708.84;2080148;28;22293;-77
2023/12/11 03:57:07;;;;;;;51.55;5.60;;;;;;;-146.25;100.00;52648.00;2078959;28;21304;-76
2023/12/11 03:58:12;;;;;;;43.33;5.82;;;;;;;-146.25;100.00;52668.28;2079925;28;25136;-75
2023/12/11 03:59:14;;;;;;;45.15;5.40;;;;;;;-146.25;100.00;52656.13;2079195;28;20105;-77
2023/12/11 04:00:16;;;;;;;47.97;5.65;;;;;;;-146.25;100.00;52652.06;2079757;28;22270;-77
2023/12/11 04:01:18;;;;;;;54.60;5.88;;;;;;;-146.25;100.00;52652.06;2079952;28;24402;-76
2023/12/11 04:02:20;;;;;;;54.40;6.50;;;;;;;-146.25;100.00;52702.75;2080098;28;20827;-77
2023/12/11 04:03:23;;;;;;;54.00;5.68;;;;;;;-146.25;100.00;52696.69;2078912;28;20133;-76
2023/12/11 04:04:25;;;;;;;44.95;5.30;;;;;;;-146.25;100.00;52648.00;2080444;28;20585;-77
2023/12/11 04:05:27;;;;;;;64.38;6.07;;;;;;;-146.25;100.00;52702.75;2080567;28;20038;-76
2023/12/11 04:06:29;;;;;;;60.33;5.88;;;;;;;-146.25;100.00;52688.56;2081000;28;20857;-77
2023/12/11 04:07:31;;;;;;;64.72;6.03;;;;;;;-146.25;100.00;52668.28;2079902;28;20688;-77
2023/12/11 04:08:35;;;;;;;49.65;5.63;;;;;;;-146.25;100.00;52666.25;2079018;28;20934;-77
2023/12/11 04:09:36;;;;;;;54.53;5.97;;;;;;;-146.25;100.00;52686.53;2080054;28;23330;-76
2023/12/11 04:10:38;;;;;;;53.83;5.82;;;;;;;-146.25;100.00;52668.28;2080252;28;22697;-77
2023/12/11 04:11:41;;;;;;;48.70;5.47;;;;;;;-146.25;100.00;52645.97;2080347;28;20062;-77
2023/12/11 04:12:45;;;;;;;55.63;6.63;;;;;;;-146.25;100.00;52660.19;2080840;28;26263;-77
2023/12/11 04:13:47;;;;;;;53.58;6.35;;;;;;;-146.25;100.00;52696.69;2079113;28;21635;-77
2023/12/11 04:14:49;;;;;;;53.15;5.95;;;;;;;-146.25;100.00;52672.34;2079540;28;21195;-77
2023/12/11 04:15:51;;;;;;;54.53;5.95;;;;;;;-146.25;100.00;52698.72;2080059;28;23539;-77
2023/12/11 04:16:55;;;;;;;57.65;6.10;;;;;;;-146.25;100.00;52678.44;2080099;28;24397;-77
2023/12/11 04:17:57;;;;;;;62.13;5.65;;;;;;;-146.25;100.00;52676.41;2080013;28;24431;-77
2023/12/11 04:19:00;;;;;;;54.67;5.25;;;;;;;-146.25;100.00;52672.34;2080777;28;20059;-77
2023/12/11 04:20:04;;;;;;;52.00;5.57;;;;;;;-146.25;100.00;52645.97;2079734;28;20916;-78
2023/12/11 04:21:09;;;;;;;40.10;4.93;;;;;;;-146.25;100.00;52680.47;2080196;28;23290;-77
2023/12/11 04:22:11;;;;;;;61.33;5.80;;;;;;;-146.25;100.00;52660.19;2080019;28;20058;-77
2023/12/11 04:23:13;;;;;;;49.70;5.82;;;;;;;-146.25;100.00;52672.34;2080358;28;22357;-77
2023/12/11 04:24:17;;;;;;;52.25;5.38;;;;;;;-146.25;100.00;52643.97;2080317;28;21367;-77
2023/12/11 04:25:19;;;;;;;54.67;6.80;;;;;;;-146.25;100.00;52643.97;2079564;28;20038;-77
2023/12/11 04:26:20;;;;;;;54.72;5.60;;;;;;;-146.25;100.00;52625.72;2080185;28;24613;-77
2023/12/11 04:27:24;;;;;;;48.78;5.43;;;;;;;-146.25;100.00;52656.13;2080069;28;20034;-77
2023/12/11 04:28:27;;;;;;;52.83;5.43;;;;;;;-146.25;100.00;52631.78;2080350;28;20148;-77
2023/12/11 04:29:29;;;;;;;52.85;5.18;;;;;;;-146.25;100.00;52648.00;2080691;28;20045;-77
2023/12/11 04:30:34;;;;;;;42.20;5.32;;;;;;;-146.25;100.00;52672.34;2079766;28;23282;-77
2023/12/11 04:31:36;;;;;;;44.92;5.43;;;;;;;-146.25;100.00;52656.13;2072079;28;20791;-77
2023/12/11 04:32:38;;;;;;;46.13;5.13;;;;;;;-146.25;100.00;52656.13;2071901;28;22784;-77
2023/12/11 04:33:40;;;;;;;48.20;5.68;;;;;;;-146.25;100.00;52652.06;2072006;28;21738;-77
2023/12/11 04:34:42;;;;;;;48.67;5.70;;;;;;;-146.25;100.00;52670.31;2072100;28;20069;-77
2023/12/11 04:35:44;;;;;;;41.97;4.75;;;;;;;-146.25;100.00;52648.00;2071768;28;21704;-77
2023/12/11 04:36:46;;;;;;;38.75;4.63;;;;;;;-146.25;100.00;52641.94;2074395;28;21848;-77
2023/12/11 04:37:49;;;;;;;47.92;4.32;;;;;;;-146.25;100.00;52648.00;2079599;28;20041;-77
2023/12/11 04:38:51;;;;;;;49.63;5.82;;;;;;;-146.25;100.00;52656.13;2079208;28;25006;-75
2023/12/11 04:39:53;;;;;;;36.72;4.55;;;;;;;-146.25;100.00;52658.16;2080323;28;20757;-77
2023/12/11 04:40:55;;;;;;;39.90;5.28;;;;;;;-146.25;100.00;52641.94;2080235;28;20080;-76
2023/12/11 04:41:56;;;;;;;41.67;5.13;;;;;;;-146.25;100.00;52680.47;2079696;28;23917;-77
2023/12/11 04:42:58;;;;;;;37.85;4.65;;;;;;;-146.25;100.00;52668.28;2080134;28;20038;-76